createdAt,value
2023-02-02T00:01:41.370Z,69.23
2023-02-02T00:04:16.265Z,69.13
2023-02-02T00:06:44.851Z,69.13
2023-02-02T00:09:16.422Z,69.10
2023-02-02T00:11:46.865Z,69.15
2023-02-02T00:14:15.181Z,69.06
2023-02-02T00:16:46.443Z,68.97
2023-02-02T00:19:25.071Z,68.86
2023-02-02T00:21:55.274Z,68.92
2023-02-02T00:24:24.233Z,68.86
2023-02-02T00:26:56.016Z,68.78
2023-02-02T00:29:29.721Z,68.74
2023-02-02T00:31:58.586Z,68.59
2023-02-02T00:34:27.237Z,68.51
2023-02-02T00:36:55.948Z,68.50
2023-02-02T00:39:26.176Z,68.42
2023-02-02T00:41:54.885Z,68.52
2023-02-02T00:44:24.339Z,68.52
2023-02-02T00:46:53.232Z,68.39
2023-02-02T00:49:22.035Z,68.45
2023-02-02T00:51:50.345Z,68.52
2023-02-02T00:54:18.699Z,68.53
2023-02-02T00:56:46.997Z,68.55
2023-02-02T00:59:15.758Z,68.65
2023-02-02T01:01:44.810Z,68.55
2023-02-02T01:04:13.667Z,68.36
2023-02-02T01:06:42.000Z,68.63
2023-02-02T01:09:10.564Z,68.69
2023-02-02T01:11:39.006Z,68.61
2023-02-02T01:14:07.249Z,68.69
2023-02-02T01:16:35.794Z,68.69
2023-02-02T01:19:04.441Z,68.53
2023-02-02T01:21:32.897Z,68.45
2023-02-02T01:24:01.338Z,68.42
2023-02-02T01:26:29.663Z,68.36
2023-02-02T01:28:58.435Z,68.29
2023-02-02T01:31:27.119Z,68.31
2023-02-02T01:33:55.343Z,68.28
2023-02-02T01:36:24.707Z,68.26
2023-02-02T01:38:53.006Z,68.29
2023-02-02T01:41:24.149Z,68.35
2023-02-02T01:43:56.897Z,68.38
2023-02-02T01:46:36.693Z,68.39
2023-02-02T01:49:08.170Z,68.16
2023-02-02T01:51:47.507Z,68.24
2023-02-02T01:54:21.833Z,68.18
2023-02-02T01:57:01.077Z,68.19
2023-02-02T01:59:30.902Z,68.29
2023-02-02T02:01:59.750Z,68.31
2023-02-02T02:04:31.280Z,68.34
2023-02-02T02:07:02.242Z,68.39
2023-02-02T02:09:30.389Z,68.32
2023-02-02T02:11:58.764Z,68.38
2023-02-02T02:14:28.579Z,68.31
2023-02-02T02:17:18.688Z,68.34
2023-02-02T02:20:15.397Z,68.32
2023-02-02T02:23:08.633Z,68.22
2023-02-02T02:25:58.739Z,68.24
2023-02-02T02:29:04.844Z,68.22
2023-02-02T02:32:08.735Z,68.23
2023-02-02T02:34:47.675Z,68.24
2023-02-02T02:37:47.185Z,68.24
2023-02-02T02:40:31.677Z,68.17
2023-02-02T02:43:05.672Z,68.13
2023-02-02T02:45:37.609Z,68.30
2023-02-02T02:48:08.464Z,68.30
2023-02-02T02:50:37.823Z,68.29
2023-02-02T02:53:11.812Z,68.28
2023-02-02T02:55:58.428Z,68.42
2023-02-02T02:59:00.772Z,68.40
2023-02-02T03:01:59.754Z,68.35
2023-02-02T03:04:30.739Z,68.28
2023-02-02T03:07:05.197Z,68.25
2023-02-02T03:09:39.809Z,68.33
2023-02-02T03:12:08.664Z,68.30
2023-02-02T03:14:38.257Z,68.33
2023-02-02T03:17:06.368Z,68.27
2023-02-02T03:19:34.723Z,68.23
2023-02-02T03:22:03.030Z,68.18
2023-02-02T03:24:31.333Z,68.11
2023-02-02T03:26:59.802Z,68.04
2023-02-02T03:29:28.961Z,68.12
2023-02-02T03:31:57.735Z,67.96
2023-02-02T03:34:26.119Z,67.87
2023-02-02T03:36:54.324Z,68.00
2023-02-02T03:39:22.742Z,68.02
2023-02-02T03:41:50.903Z,67.78
2023-02-02T03:44:19.205Z,67.93
2023-02-02T03:46:47.458Z,67.97
2023-02-02T03:49:15.708Z,67.97
2023-02-02T03:51:43.939Z,67.84
2023-02-02T03:54:12.422Z,67.82
2023-02-02T03:56:40.856Z,67.75
2023-02-02T03:59:09.179Z,67.78
2023-02-02T04:01:38.755Z,67.86
2023-02-02T04:04:07.012Z,67.83
2023-02-02T04:06:35.403Z,67.76
2023-02-02T04:09:03.805Z,67.73
2023-02-02T04:11:32.975Z,67.71
2023-02-02T04:14:01.679Z,67.56
2023-02-02T04:16:30.064Z,67.54
2023-02-02T04:18:58.460Z,67.51
2023-02-02T04:21:26.762Z,67.48
2023-02-02T04:23:55.028Z,67.46
2023-02-02T04:26:24.088Z,67.46
2023-02-02T04:28:53.606Z,67.41
2023-02-02T04:31:22.022Z,67.37
2023-02-02T04:33:50.437Z,67.36
2023-02-02T04:36:18.696Z,67.53
2023-02-02T04:38:53.485Z,67.53
2023-02-02T04:41:24.595Z,67.44
2023-02-02T04:43:52.879Z,67.40
2023-02-02T04:46:21.029Z,67.43
2023-02-02T04:48:49.747Z,67.44
2023-02-02T04:51:17.894Z,67.42
2023-02-02T04:53:47.419Z,67.37
2023-02-02T04:56:18.848Z,67.44
2023-02-02T04:58:47.320Z,67.43
2023-02-02T05:01:18.045Z,67.47
2023-02-02T05:03:47.539Z,67.55
2023-02-02T05:06:16.953Z,67.53
2023-02-02T05:08:46.219Z,67.49
2023-02-02T05:11:18.274Z,67.47
2023-02-02T05:13:48.829Z,67.51
2023-02-02T05:16:18.439Z,67.50
2023-02-02T05:18:51.922Z,67.52
2023-02-02T05:21:21.915Z,67.61
2023-02-02T05:23:50.328Z,67.64
2023-02-02T05:26:23.320Z,67.70
2023-02-02T05:28:53.260Z,67.74
2023-02-02T05:31:22.376Z,67.80
2023-02-02T05:33:50.574Z,67.87
2023-02-02T05:36:18.950Z,67.97
2023-02-02T05:38:47.387Z,68.00
2023-02-02T05:41:16.952Z,68.08
2023-02-02T05:43:45.312Z,68.25
2023-02-02T05:46:13.868Z,68.28
2023-02-02T05:48:42.071Z,68.26
2023-02-02T05:51:37.671Z,68.32
2023-02-02T05:54:06.377Z,68.44
2023-02-02T05:56:34.485Z,68.55
2023-02-02T05:59:02.596Z,68.55
2023-02-02T06:01:30.841Z,68.60
2023-02-02T06:03:59.513Z,68.62
2023-02-02T06:06:27.887Z,68.62
2023-02-02T06:08:56.194Z,68.70
2023-02-02T06:11:24.357Z,68.67
2023-02-02T06:13:52.841Z,68.57
2023-02-02T06:16:21.330Z,68.61
2023-02-02T06:18:49.504Z,68.66
2023-02-02T06:21:17.744Z,68.53
2023-02-02T06:23:47.080Z,68.53
2023-02-02T06:26:16.552Z,68.55
2023-02-02T06:28:49.689Z,68.52
2023-02-02T06:31:18.593Z,68.47
2023-02-02T06:33:55.020Z,68.54
2023-02-02T06:36:25.509Z,68.52
2023-02-02T06:38:56.138Z,68.53
2023-02-02T06:41:25.254Z,68.39
2023-02-02T06:43:53.456Z,68.28
2023-02-02T06:46:22.062Z,68.25
2023-02-02T06:48:50.310Z,68.23
2023-02-02T06:51:18.528Z,68.17
2023-02-02T06:53:50.460Z,68.11
2023-02-02T06:56:18.644Z,68.16
2023-02-02T06:58:46.833Z,68.10
2023-02-02T07:01:15.550Z,68.08
2023-02-02T07:03:43.787Z,68.05
2023-02-02T07:06:17.815Z,67.93
2023-02-02T07:09:02.036Z,67.80
2023-02-02T07:11:34.727Z,67.63
2023-02-02T07:14:09.671Z,67.61
2023-02-02T07:16:38.365Z,67.49
2023-02-02T07:19:07.162Z,67.24
2023-02-02T07:21:35.919Z,66.98
2023-02-02T07:24:06.550Z,66.87
2023-02-02T07:26:36.340Z,66.80
2023-02-02T07:29:05.682Z,66.56
2023-02-02T07:31:36.319Z,66.37
2023-02-02T07:34:05.684Z,66.13
2023-02-02T07:36:34.203Z,66.11
2023-02-02T07:39:03.475Z,65.86
2023-02-02T07:41:34.181Z,65.73
2023-02-02T07:44:03.789Z,63.75
2023-02-02T07:46:32.370Z,60.35
2023-02-02T07:49:00.854Z,58.42
2023-02-02T07:51:29.033Z,55.97
2023-02-02T07:53:57.195Z,53.80
2023-02-02T07:56:27.895Z,49.83
2023-02-02T07:58:57.078Z,45.58
2023-02-02T08:01:26.945Z,41.96
2023-02-02T08:03:58.019Z,38.74
2023-02-02T08:06:35.539Z,35.69
2023-02-02T08:09:06.167Z,33.15
2023-02-02T08:11:36.665Z,30.69
2023-02-02T08:14:06.330Z,28.75
2023-02-02T08:16:34.879Z,27.13
2023-02-02T08:19:03.221Z,26.07
2023-02-02T08:21:35.494Z,25.58
2023-02-02T08:24:04.473Z,25.60
2023-02-02T08:26:33.132Z,25.51
2023-02-02T08:29:05.222Z,24.65
2023-02-02T08:31:39.536Z,23.56
2023-02-02T08:34:08.514Z,22.57
2023-02-02T08:36:37.544Z,21.76
2023-02-02T08:39:12.558Z,20.98
2023-02-02T08:41:40.993Z,20.31
2023-02-02T08:44:12.678Z,19.65
2023-02-02T08:46:41.338Z,19.07
2023-02-02T08:49:14.618Z,18.62
2023-02-02T08:51:43.167Z,18.20
2023-02-02T08:54:11.964Z,17.82
2023-02-02T08:56:40.200Z,17.42
2023-02-02T08:59:08.617Z,17.01
2023-02-02T09:01:36.926Z,16.73
2023-02-02T09:04:15.042Z,16.21
2023-02-02T09:06:44.363Z,15.82
2023-02-02T09:09:16.726Z,15.46
2023-02-02T09:11:45.212Z,15.16
2023-02-02T09:14:14.452Z,14.81
2023-02-02T09:16:43.237Z,14.62
2023-02-02T09:19:12.329Z,14.46
2023-02-02T09:21:42.982Z,14.24
2023-02-02T09:24:13.908Z,14.19
2023-02-02T09:26:43.823Z,13.97
2023-02-02T09:29:15.810Z,13.82
2023-02-02T09:31:44.174Z,13.69
2023-02-02T09:34:14.889Z,13.42
2023-02-02T09:36:44.624Z,13.26
2023-02-02T09:39:13.763Z,13.11
2023-02-02T09:41:42.108Z,12.95
2023-02-02T09:44:29.521Z,12.80
2023-02-02T09:47:12.766Z,12.74
2023-02-02T09:50:15.162Z,12.96
2023-02-02T09:52:48.936Z,13.08
2023-02-02T09:55:42.441Z,13.56
2023-02-02T09:58:26.408Z,14.00
2023-02-02T10:01:12.388Z,14.89
2023-02-02T10:04:11.520Z,15.90
2023-02-02T10:06:41.864Z,16.27
2023-02-02T10:09:35.028Z,16.18
2023-02-02T10:12:22.126Z,15.80
2023-02-02T10:15:00.868Z,15.47
2023-02-02T10:17:35.193Z,15.62
2023-02-02T10:20:28.679Z,15.15
2023-02-02T10:23:03.414Z,14.88
2023-02-02T10:25:35.468Z,14.65
2023-02-02T10:28:12.130Z,14.84
2023-02-02T10:30:55.779Z,15.00
2023-02-02T10:33:32.472Z,14.63
2023-02-02T10:36:12.267Z,14.04
2023-02-02T10:38:49.626Z,14.04
2023-02-02T10:41:26.919Z,14.43
2023-02-02T10:44:08.478Z,14.53
2023-02-02T10:46:50.293Z,14.21
2023-02-02T10:49:29.166Z,14.53
2023-02-02T10:52:10.504Z,14.44
2023-02-02T10:54:57.323Z,14.39
2023-02-02T10:57:43.265Z,14.23
2023-02-02T11:00:23.589Z,14.29
2023-02-02T11:02:53.609Z,14.28
2023-02-02T11:05:28.855Z,13.93
2023-02-02T11:07:57.239Z,13.74
2023-02-02T11:10:26.104Z,14.05
2023-02-02T11:12:55.859Z,14.35
2023-02-02T11:15:31.010Z,14.46
2023-02-02T11:18:30.935Z,14.15
2023-02-02T11:20:59.408Z,14.28
2023-02-02T11:23:29.032Z,14.32
2023-02-02T11:26:00.083Z,13.98
2023-02-02T11:28:34.380Z,14.06
2023-02-02T11:31:03.553Z,14.39
2023-02-02T11:33:34.562Z,14.68
2023-02-02T11:36:28.633Z,14.57
2023-02-02T11:39:20.441Z,14.78
2023-02-02T11:41:48.785Z,14.89
2023-02-02T11:44:28.608Z,14.91
2023-02-02T11:46:57.019Z,14.99
2023-02-02T11:49:26.298Z,15.24
2023-02-02T11:52:03.523Z,14.99
2023-02-02T11:54:34.543Z,15.39
2023-02-02T11:57:10.228Z,15.79
2023-02-02T11:59:40.496Z,15.83
2023-02-02T12:02:28.221Z,16.29
2023-02-02T12:05:14.020Z,16.72
2023-02-02T12:07:44.051Z,17.19
2023-02-02T12:10:20.120Z,18.14
2023-02-02T12:13:10.387Z,19.53
2023-02-02T12:16:01.028Z,21.29
2023-02-02T12:19:14.417Z,23.28
2023-02-02T12:21:45.804Z,25.34
2023-02-02T12:24:32.653Z,26.28
2023-02-02T12:27:30.185Z,27.45
2023-02-02T12:30:14.830Z,28.52
2023-02-02T12:33:20.465Z,29.92
2023-02-02T12:36:01.670Z,31.14
2023-02-02T12:38:56.019Z,32.10
2023-02-02T12:41:44.096Z,33.15
2023-02-02T12:44:55.416Z,34.55
2023-02-02T12:47:55.061Z,35.55
2023-02-02T12:50:45.183Z,36.61
2023-02-02T12:53:43.038Z,37.67
2023-02-02T12:56:17.494Z,37.87
2023-02-02T12:59:01.804Z,37.68
2023-02-02T13:01:38.724Z,37.93
2023-02-02T13:04:31.397Z,38.38
2023-02-02T13:07:21.340Z,37.85
2023-02-02T13:10:00.914Z,37.93
2023-02-02T13:12:33.317Z,38.56
2023-02-02T13:15:06.722Z,38.57
2023-02-02T13:17:58.284Z,38.86
2023-02-02T13:20:56.071Z,38.96
2023-02-02T13:23:39.423Z,38.91
2023-02-02T13:26:16.339Z,39.54
2023-02-02T13:29:16.607Z,40.25
2023-02-02T13:31:55.598Z,40.84
2023-02-02T13:34:44.758Z,41.14
2023-02-02T13:37:33.401Z,41.50
2023-02-02T13:40:21.206Z,42.14
2023-02-02T13:42:49.336Z,42.65
2023-02-02T13:45:38.004Z,42.02
2023-02-02T13:48:20.206Z,42.30
2023-02-02T13:51:11.787Z,42.71
2023-02-02T13:54:04.685Z,42.62
2023-02-02T13:56:43.324Z,42.85
2023-02-02T13:59:20.259Z,42.97
2023-02-02T14:01:51.399Z,42.60
2023-02-02T14:04:27.402Z,42.84
2023-02-02T14:06:57.482Z,42.69
2023-02-02T14:09:32.012Z,42.91
2023-02-02T14:12:04.737Z,42.83
2023-02-02T14:14:35.691Z,42.85
2023-02-02T14:17:08.547Z,43.59
2023-02-02T14:19:36.714Z,43.87
2023-02-02T14:22:13.591Z,43.96
2023-02-02T14:24:52.390Z,44.42
2023-02-02T14:27:20.698Z,44.94
2023-02-02T14:29:52.336Z,45.58
2023-02-02T14:32:33.016Z,45.56
2023-02-02T14:35:24.027Z,45.46
2023-02-02T14:38:16.610Z,45.55
2023-02-02T14:40:54.190Z,45.81
2023-02-02T14:43:25.269Z,45.76
2023-02-02T14:46:15.776Z,45.81
2023-02-02T14:49:05.678Z,46.00
2023-02-02T14:51:55.022Z,45.67
2023-02-02T14:54:32.315Z,46.04
2023-02-02T14:57:20.085Z,46.23
2023-02-02T14:59:49.051Z,46.57
2023-02-02T15:02:34.715Z,46.68
2023-02-02T15:05:31.526Z,46.84
2023-02-02T15:08:35.284Z,46.91
2023-02-02T15:11:08.496Z,46.91
2023-02-02T15:13:38.326Z,47.72
2023-02-02T15:16:31.051Z,48.07
2023-02-02T15:19:13.599Z,47.93
2023-02-02T15:21:46.237Z,48.02
2023-02-02T15:24:22.716Z,47.75
2023-02-02T15:26:52.629Z,47.79
2023-02-02T15:29:56.987Z,47.35
2023-02-02T15:32:27.254Z,48.11
2023-02-02T15:35:01.626Z,48.28
2023-02-02T15:37:38.106Z,48.13
2023-02-02T15:40:15.030Z,48.63
2023-02-02T15:42:47.177Z,48.71
2023-02-02T15:45:43.335Z,49.05
2023-02-02T15:48:21.631Z,49.40
2023-02-02T15:50:53.302Z,49.33
2023-02-02T15:53:28.307Z,49.43
2023-02-02T15:55:57.658Z,49.53
2023-02-02T15:58:35.134Z,49.87
2023-02-02T16:01:14.512Z,49.78
2023-02-02T16:04:11.092Z,49.52
2023-02-02T16:06:40.456Z,49.28
2023-02-02T16:09:22.476Z,49.10
2023-02-02T16:11:51.305Z,49.11
2023-02-02T16:14:19.721Z,48.75
2023-02-02T16:16:49.165Z,48.61
2023-02-02T16:19:25.620Z,48.61
2023-02-02T16:22:07.930Z,48.64
2023-02-02T16:24:52.827Z,48.46
2023-02-02T16:27:27.594Z,48.19
2023-02-02T16:30:01.205Z,48.20
2023-02-02T16:32:38.100Z,48.04
2023-02-02T16:35:34.583Z,47.93
2023-02-02T16:38:36.119Z,47.92
2023-02-02T16:41:06.210Z,47.96
2023-02-02T16:43:36.859Z,48.11
2023-02-02T16:46:09.443Z,48.50
2023-02-02T16:49:00.218Z,48.83
2023-02-02T16:51:32.890Z,49.15
2023-02-02T16:54:19.514Z,49.41
2023-02-02T16:56:51.353Z,49.59
2023-02-02T16:59:27.095Z,49.82
2023-02-02T17:01:59.213Z,49.93
2023-02-02T17:04:35.008Z,50.22
2023-02-02T17:07:22.103Z,50.70
2023-02-02T17:09:50.849Z,51.01
2023-02-02T17:12:34.249Z,51.35
2023-02-02T17:15:28.613Z,51.63
2023-02-02T17:17:58.066Z,52.11
2023-02-02T17:20:27.458Z,52.46
2023-02-02T17:23:04.073Z,53.10
2023-02-02T17:25:40.679Z,53.89
2023-02-02T17:28:16.519Z,54.56
2023-02-02T17:30:47.050Z,54.63
2023-02-02T17:33:19.140Z,55.18
2023-02-02T17:35:54.819Z,55.63
2023-02-02T17:38:25.728Z,55.83
2023-02-02T17:40:56.239Z,55.84
2023-02-02T17:43:24.549Z,56.14
2023-02-02T17:45:53.505Z,56.77
2023-02-02T17:48:22.513Z,57.32
2023-02-02T17:50:50.860Z,57.50
2023-02-02T17:53:21.938Z,57.75
2023-02-02T17:55:50.694Z,58.17
2023-02-02T17:58:19.285Z,58.52
2023-02-02T18:00:52.487Z,58.74
2023-02-02T18:03:34.462Z,59.03
2023-02-02T18:06:03.593Z,59.10
2023-02-02T18:08:33.118Z,59.38
2023-02-02T18:11:01.406Z,59.77
2023-02-02T18:13:29.850Z,59.81
2023-02-02T18:15:57.991Z,60.11
2023-02-02T18:18:27.144Z,60.39
2023-02-02T18:20:55.351Z,60.47
2023-02-02T18:23:23.577Z,60.62
2023-02-02T18:25:52.460Z,60.86
2023-02-02T18:28:20.807Z,61.08
2023-02-02T18:30:49.049Z,61.21
2023-02-02T18:33:17.896Z,61.41
2023-02-02T18:35:47.828Z,61.70
2023-02-02T18:38:16.087Z,61.79
2023-02-02T18:40:44.295Z,62.06
2023-02-02T18:43:12.581Z,62.21
2023-02-02T18:45:41.139Z,62.26
2023-02-02T18:48:09.531Z,62.28
2023-02-02T18:50:37.807Z,62.31
2023-02-02T18:53:06.660Z,62.59
2023-02-02T18:55:37.636Z,62.74
2023-02-02T18:58:06.353Z,62.77
2023-02-02T19:00:34.627Z,62.87
2023-02-02T19:03:02.938Z,63.01
2023-02-02T19:05:31.775Z,63.14
2023-02-02T19:08:00.118Z,63.27
2023-02-02T19:10:28.281Z,63.36
2023-02-02T19:13:20.013Z,63.47
2023-02-02T19:15:50.912Z,63.67
2023-02-02T19:18:24.316Z,63.86
2023-02-02T19:20:52.850Z,63.92
2023-02-02T19:23:23.494Z,64.10
2023-02-02T19:25:53.580Z,64.23
2023-02-02T19:28:23.329Z,64.42
2023-02-02T19:30:53.605Z,64.52
2023-02-02T19:33:34.429Z,64.44
2023-02-02T19:36:02.900Z,64.77
2023-02-02T19:38:31.079Z,64.90
2023-02-02T19:41:01.363Z,64.89
2023-02-02T19:43:30.547Z,64.97
2023-02-02T19:46:00.397Z,65.05
2023-02-02T19:48:35.066Z,64.99
2023-02-02T19:51:33.952Z,65.26
2023-02-02T19:54:02.769Z,65.26
2023-02-02T19:56:38.304Z,65.17
2023-02-02T19:59:16.828Z,65.36
2023-02-02T20:01:45.229Z,65.44
2023-02-02T20:04:15.600Z,65.41
2023-02-02T20:06:58.050Z,65.36
2023-02-02T20:09:33.766Z,65.24
2023-02-02T20:12:18.793Z,65.27
2023-02-02T20:14:47.927Z,64.95
2023-02-02T20:17:36.389Z,65.06
2023-02-02T20:20:16.707Z,64.98
2023-02-02T20:22:45.018Z,64.95
2023-02-02T20:25:15.429Z,65.14
2023-02-02T20:27:44.391Z,64.93
2023-02-02T20:30:26.609Z,64.85
2023-02-02T20:33:00.143Z,64.48
2023-02-02T20:35:38.918Z,64.28
2023-02-02T20:38:26.465Z,64.13
2023-02-02T20:40:56.909Z,64.05
2023-02-02T20:43:25.120Z,63.69
2023-02-02T20:45:53.490Z,63.51
2023-02-02T20:48:22.331Z,63.62
2023-02-02T20:50:50.588Z,63.59
2023-02-02T20:53:18.812Z,63.34
2023-02-02T20:55:47.283Z,63.10
2023-02-02T20:58:15.596Z,63.23
2023-02-02T21:00:44.001Z,63.02
2023-02-02T21:03:12.524Z,63.28
2023-02-02T21:05:40.854Z,62.89
2023-02-02T21:08:09.533Z,62.37
2023-02-02T21:10:38.346Z,62.07
2023-02-02T21:13:07.436Z,62.00
2023-02-02T21:15:35.639Z,62.12
2023-02-02T21:18:04.300Z,62.03
2023-02-02T21:20:32.461Z,62.10
2023-02-02T21:23:00.696Z,62.08
2023-02-02T21:25:28.991Z,61.80
2023-02-02T21:27:57.812Z,61.78
2023-02-02T21:30:26.957Z,61.86
2023-02-02T21:32:55.655Z,62.08
2023-02-02T21:35:25.928Z,62.27
2023-02-02T21:37:57.859Z,62.41
2023-02-02T21:40:31.000Z,62.56
2023-02-02T21:43:01.621Z,62.87
2023-02-02T21:45:37.197Z,63.10
2023-02-02T21:48:27.054Z,63.08
2023-02-02T21:50:56.276Z,63.25
2023-02-02T21:53:27.637Z,63.37
2023-02-02T21:55:58.718Z,63.64
2023-02-02T21:58:37.864Z,63.71
2023-02-02T22:01:33.138Z,63.98
2023-02-02T22:04:01.431Z,64.39
2023-02-02T22:06:35.601Z,64.60
2023-02-02T22:09:25.278Z,64.93
2023-02-02T22:12:06.094Z,64.90
2023-02-02T22:14:40.379Z,64.92
2023-02-02T22:17:25.984Z,65.25
2023-02-02T22:20:01.393Z,65.37
2023-02-02T22:22:34.651Z,65.41
2023-02-02T22:25:23.096Z,65.47
2023-02-02T22:27:55.624Z,65.60
2023-02-02T22:30:37.764Z,65.74
2023-02-02T22:33:08.190Z,65.60
2023-02-02T22:35:37.734Z,65.79
2023-02-02T22:38:07.024Z,65.92
2023-02-02T22:40:35.566Z,66.00
2023-02-02T22:43:06.117Z,66.02
2023-02-02T22:45:35.319Z,66.04
2023-02-02T22:48:04.752Z,65.97
2023-02-02T22:50:33.998Z,65.85
2023-02-02T22:53:04.225Z,65.96
2023-02-02T22:55:34.576Z,66.10
2023-02-02T22:58:02.840Z,66.22
2023-02-02T23:00:32.786Z,66.24
2023-02-02T23:03:01.340Z,66.17
2023-02-02T23:05:30.198Z,66.24
2023-02-02T23:07:58.384Z,66.23
2023-02-02T23:10:28.193Z,66.20
2023-02-02T23:12:56.934Z,66.23
2023-02-02T23:15:25.356Z,66.39
2023-02-02T23:17:54.673Z,66.43
2023-02-02T23:20:23.357Z,66.48
2023-02-02T23:22:51.562Z,66.58
2023-02-02T23:25:20.042Z,66.56
2023-02-02T23:27:48.648Z,66.63
2023-02-02T23:30:17.429Z,66.67
2023-02-02T23:32:45.651Z,66.67
2023-02-02T23:35:14.071Z,66.73
2023-02-02T23:37:42.569Z,66.74
2023-02-02T23:40:12.322Z,66.75
2023-02-02T23:42:40.764Z,66.81
2023-02-02T23:45:09.755Z,66.86
2023-02-02T23:47:38.659Z,66.91
2023-02-02T23:50:09.155Z,66.94
2023-02-02T23:52:38.515Z,66.94
2023-02-02T23:55:08.221Z,66.96
2023-02-02T23:57:37.297Z,66.98
